This is the latest recevied weather packets stored in our database for station/object KB3CAT. If no packets are shown the sender has not sent any weather packets the latest 10 day(s).
| Time | Temp. | Humidity | Pressure | Rain* | Wind** | Luminosity | Snow |
|---|---|---|---|---|---|---|---|
| 1778034076 | 21.67° C | 38% | 1008.3 hPa | 0 mm | - | - | - |
| 1778032917 | 22.22° C | 39% | 1008.3 hPa | 0 mm | - | - | - |
| 1778031076 | 22.78° C | 38% | 1007.9 hPa | 0 mm | - | - | - |
| 1778028676 | 22.78° C | 38% | 1007.5 hPa | 0 mm | - | - | - |
| 1778023276 | 25° C | 36% | 1006.6 hPa | 0 mm | - | - | - |
| 1778020276 | 26.11° C | 36% | 1006.3 hPa | 0 mm | - | - | - |
| 1778014277 | 27.22° C | 36% | 1006.3 hPa | 0 mm | - | - | - |
| 1778012476 | 27.78° C | 34% | 1006.4 hPa | 0 mm | - | - | - |
| 1778002277 | 27.78° C | 35% | 1008.2 hPa | 0 mm | - | - | - |
| 1778001676 | 26.67° C | 36% | 1008.4 hPa | 0 mm | - | - | - |
| 1778001076 | 27.22° C | 35% | 1008.5 hPa | 0 mm | - | - | - |
| 1777998076 | 26.11° C | 37% | 1009.4 hPa | 0 mm | - | - | - |
| 1777994476 | 25.56° C | 40% | 1009.6 hPa | 0 mm | - | - | - |
| 1777985477 | 20° C | 60% | 1010.3 hPa | 0 mm | - | - | - |
| 1777983676 | 18.89° C | 61% | 1010.4 hPa | 0 mm | - | - | - |
| 1777983096 | 18.33° C | 63% | 1010.4 hPa | 0 mm | - | - | - |
| 1777975877 | 11.67° C | 81% | 1009.4 hPa | 0 mm | - | - | - |
| 1777975276 | 11.67° C | 81% | 1009.4 hPa | 0 mm | - | - | - |
| 1777969317 | 12.22° C | 78% | 1009 hPa | 0 mm | - | - | - |
| 1777964477 | 15.56° C | 68% | 1008.7 hPa | 0 mm | - | - | - |
| 1777959117 | 17.22° C | 61% | 1009.1 hPa | 0 mm | - | - | - |
| 1777958477 | 17.78° C | 59% | 1009 hPa | 0 mm | - | - | - |
| 1777956677 | 19.44° C | 52% | 1009 hPa | 0 mm | - | - | - |
| 1777955476 | 20° C | 51% | 1008.9 hPa | 0 mm | - | - | - |
| 1777954877 | 20° C | 51% | 1008.7 hPa | 0 mm | - | - | - |
* Rain latest hour (hover to see other rain measurements)
** Current wind speed in m/s (hover to see current wind gust speed)